sensor_id;sensor_type;location;lat;lon;timestamp;P1;durP1;ratioP1;P2;durP2;ratioP2
29330;SDS011;16331;52.528;13.342;2022-11-02T00:01:20;13.75;;;6.68;;
29330;SDS011;16331;52.528;13.342;2022-11-02T00:03:57;13.05;;;5.72;;
29330;SDS011;16331;52.528;13.342;2022-11-02T00:06:23;10.40;;;6.22;;
29330;SDS011;16331;52.528;13.342;2022-11-02T00:08:49;15.13;;;5.65;;
29330;SDS011;16331;52.528;13.342;2022-11-02T00:11:15;11.88;;;5.80;;
29330;SDS011;16331;52.528;13.342;2022-11-02T00:13:41;13.75;;;5.72;;
29330;SDS011;16331;52.528;13.342;2022-11-02T00:16:10;10.82;;;5.70;;
29330;SDS011;16331;52.528;13.342;2022-11-02T00:18:41;10.77;;;5.38;;
29330;SDS011;16331;52.528;13.342;2022-11-02T00:21:09;10.98;;;5.18;;
29330;SDS011;16331;52.528;13.342;2022-11-02T00:23:39;9.98;;;5.38;;
29330;SDS011;16331;52.528;13.342;2022-11-02T00:26:06;13.45;;;5.95;;
29330;SDS011;16331;52.528;13.342;2022-11-02T00:28:32;11.43;;;5.80;;
29330;SDS011;16331;52.528;13.342;2022-11-02T00:30:59;12.48;;;5.35;;
29330;SDS011;16331;52.528;13.342;2022-11-02T00:33:25;10.63;;;6.05;;
29330;SDS011;16331;52.528;13.342;2022-11-02T00:35:52;9.27;;;5.53;;
29330;SDS011;16331;52.528;13.342;2022-11-02T00:38:18;12.63;;;5.43;;
29330;SDS011;16331;52.528;13.342;2022-11-02T00:40:46;12.13;;;5.40;;
29330;SDS011;16331;52.528;13.342;2022-11-02T00:43:12;15.90;;;5.75;;
29330;SDS011;16331;52.528;13.342;2022-11-02T00:45:38;11.68;;;5.25;;
29330;SDS011;16331;52.528;13.342;2022-11-02T00:48:05;10.15;;;5.03;;
29330;SDS011;16331;52.528;13.342;2022-11-02T00:50:31;8.35;;;4.68;;
29330;SDS011;16331;52.528;13.342;2022-11-02T00:52:57;12.95;;;4.95;;
29330;SDS011;16331;52.528;13.342;2022-11-02T00:55:23;9.90;;;4.93;;
29330;SDS011;16331;52.528;13.342;2022-11-02T00:57:51;10.15;;;5.30;;
29330;SDS011;16331;52.528;13.342;2022-11-02T01:00:18;8.75;;;5.38;;
29330;SDS011;16331;52.528;13.342;2022-11-02T01:02:45;9.52;;;5.20;;
29330;SDS011;16331;52.528;13.342;2022-11-02T01:05:11;7.95;;;4.53;;
29330;SDS011;16331;52.528;13.342;2022-11-02T01:07:38;11.27;;;4.63;;
29330;SDS011;16331;52.528;13.342;2022-11-02T01:10:05;9.38;;;4.25;;
29330;SDS011;16331;52.528;13.342;2022-11-02T01:12:32;8.65;;;4.65;;
29330;SDS011;16331;52.528;13.342;2022-11-02T01:15:01;7.60;;;4.13;;
29330;SDS011;16331;52.528;13.342;2022-11-02T01:17:28;13.57;;;4.45;;
29330;SDS011;16331;52.528;13.342;2022-11-02T01:19:54;7.25;;;4.28;;
29330;SDS011;16331;52.528;13.342;2022-11-02T01:22:20;9.32;;;4.10;;
29330;SDS011;16331;52.528;13.342;2022-11-02T01:24:46;10.30;;;3.53;;
29330;SDS011;16331;52.528;13.342;2022-11-02T01:27:15;7.15;;;3.65;;
29330;SDS011;16331;52.528;13.342;2022-11-02T01:29:41;11.68;;;4.07;;
29330;SDS011;16331;52.528;13.342;2022-11-02T01:32:11;13.80;;;4.38;;
29330;SDS011;16331;52.528;13.342;2022-11-02T01:34:38;9.68;;;3.80;;
29330;SDS011;16331;52.528;13.342;2022-11-02T01:37:04;6.10;;;3.63;;
29330;SDS011;16331;52.528;13.342;2022-11-02T01:39:32;9.48;;;3.22;;
29330;SDS011;16331;52.528;13.342;2022-11-02T01:41:58;6.47;;;3.40;;
29330;SDS011;16331;52.528;13.342;2022-11-02T01:46:57;6.93;;;3.35;;
29330;SDS011;16331;52.528;13.342;2022-11-02T01:49:32;4.93;;;3.22;;
29330;SDS011;16331;52.528;13.342;2022-11-02T01:52:05;8.52;;;3.05;;
29330;SDS011;16331;52.528;13.342;2022-11-02T01:54:39;5.50;;;3.03;;
29330;SDS011;16331;52.528;13.342;2022-11-02T01:57:09;4.30;;;2.80;;
29330;SDS011;16331;52.528;13.342;2022-11-02T01:59:43;7.50;;;3.03;;
29330;SDS011;16331;52.528;13.342;2022-11-02T02:04:53;4.07;;;2.50;;
29330;SDS011;16331;52.528;13.342;2022-11-02T02:07:37;5.95;;;3.22;;
29330;SDS011;16331;52.528;13.342;2022-11-02T02:10:05;5.88;;;2.58;;
29330;SDS011;16331;52.528;13.342;2022-11-02T02:12:32;6.20;;;2.80;;
29330;SDS011;16331;52.528;13.342;2022-11-02T02:15:01;5.88;;;2.60;;
29330;SDS011;16331;52.528;13.342;2022-11-02T02:20:04;5.13;;;2.78;;
29330;SDS011;16331;52.528;13.342;2022-11-02T02:22:55;8.20;;;1.95;;
29330;SDS011;16331;52.528;13.342;2022-11-02T02:31:24;5.13;;;2.75;;
29330;SDS011;16331;52.528;13.342;2022-11-02T02:34:17;6.70;;;2.70;;
29330;SDS011;16331;52.528;13.342;2022-11-02T02:36:57;3.80;;;2.05;;
29330;SDS011;16331;52.528;13.342;2022-11-02T02:44:46;6.38;;;2.50;;
29330;SDS011;16331;52.528;13.342;2022-11-02T02:47:22;6.07;;;2.42;;
29330;SDS011;16331;52.528;13.342;2022-11-02T02:49:53;6.07;;;2.53;;
29330;SDS011;16331;52.528;13.342;2022-11-02T02:52:41;2.17;;;1.55;;
29330;SDS011;16331;52.528;13.342;2022-11-02T02:55:15;4.63;;;2.47;;
29330;SDS011;16331;52.528;13.342;2022-11-02T02:57:46;9.05;;;2.00;;
29330;SDS011;16331;52.528;13.342;2022-11-02T03:00:14;4.68;;;1.80;;
29330;SDS011;16331;52.528;13.342;2022-11-02T03:02:42;5.85;;;2.10;;
29330;SDS011;16331;52.528;13.342;2022-11-02T03:08:05;4.38;;;1.60;;
29330;SDS011;16331;52.528;13.342;2022-11-02T03:10:40;3.33;;;1.63;;
29330;SDS011;16331;52.528;13.342;2022-11-02T03:13:25;3.40;;;2.20;;
29330;SDS011;16331;52.528;13.342;2022-11-02T03:16:16;4.57;;;1.80;;
29330;SDS011;16331;52.528;13.342;2022-11-02T03:21:43;4.10;;;1.90;;
29330;SDS011;16331;52.528;13.342;2022-11-02T03:24:21;2.90;;;1.90;;
29330;SDS011;16331;52.528;13.342;2022-11-02T03:29:34;7.32;;;2.05;;
29330;SDS011;16331;52.528;13.342;2022-11-02T03:32:10;5.18;;;2.17;;
29330;SDS011;16331;52.528;13.342;2022-11-02T03:34:47;7.20;;;1.90;;
29330;SDS011;16331;52.528;13.342;2022-11-02T03:37:26;4.57;;;1.75;;
29330;SDS011;16331;52.528;13.342;2022-11-02T03:42:39;2.70;;;1.73;;
29330;SDS011;16331;52.528;13.342;2022-11-02T03:45:14;3.63;;;1.52;;
29330;SDS011;16331;52.528;13.342;2022-11-02T03:47:48;12.27;;;2.10;;
29330;SDS011;16331;52.528;13.342;2022-11-02T03:50:20;3.90;;;2.08;;
29330;SDS011;16331;52.528;13.342;2022-11-02T03:52:50;6.45;;;1.80;;
29330;SDS011;16331;52.528;13.342;2022-11-02T03:55:29;5.78;;;1.45;;
29330;SDS011;16331;52.528;13.342;2022-11-02T03:58:00;3.90;;;1.42;;
29330;SDS011;16331;52.528;13.342;2022-11-02T04:00:29;5.85;;;1.45;;
29330;SDS011;16331;52.528;13.342;2022-11-02T04:02:59;3.33;;;1.50;;
29330;SDS011;16331;52.528;13.342;2022-11-02T04:05:29;8.40;;;1.83;;
29330;SDS011;16331;52.528;13.342;2022-11-02T04:07:56;2.72;;;1.65;;
29330;SDS011;16331;52.528;13.342;2022-11-02T04:10:42;8.45;;;1.67;;
29330;SDS011;16331;52.528;13.342;2022-11-02T04:13:31;3.75;;;1.95;;
29330;SDS011;16331;52.528;13.342;2022-11-02T04:16:16;2.42;;;1.30;;
29330;SDS011;16331;52.528;13.342;2022-11-02T04:18:42;2.25;;;1.20;;
29330;SDS011;16331;52.528;13.342;2022-11-02T04:21:27;4.72;;;1.88;;
29330;SDS011;16331;52.528;13.342;2022-11-02T04:23:54;5.18;;;1.70;;
29330;SDS011;16331;52.528;13.342;2022-11-02T04:26:39;3.30;;;1.70;;
29330;SDS011;16331;52.528;13.342;2022-11-02T04:29:07;7.45;;;2.08;;
29330;SDS011;16331;52.528;13.342;2022-11-02T04:31:33;7.00;;;2.15;;
29330;SDS011;16331;52.528;13.342;2022-11-02T04:34:00;3.92;;;1.67;;
29330;SDS011;16331;52.528;13.342;2022-11-02T04:36:29;5.32;;;1.77;;
29330;SDS011;16331;52.528;13.342;2022-11-02T04:38:56;4.60;;;1.75;;
29330;SDS011;16331;52.528;13.342;2022-11-02T04:41:22;6.43;;;1.77;;
29330;SDS011;16331;52.528;13.342;2022-11-02T04:44:11;5.18;;;1.63;;
29330;SDS011;16331;52.528;13.342;2022-11-02T04:46:39;3.20;;;1.55;;
29330;SDS011;16331;52.528;13.342;2022-11-02T04:49:06;2.03;;;1.50;;
29330;SDS011;16331;52.528;13.342;2022-11-02T04:51:33;3.08;;;1.45;;
29330;SDS011;16331;52.528;13.342;2022-11-02T04:54:00;5.03;;;2.17;;
29330;SDS011;16331;52.528;13.342;2022-11-02T04:56:27;4.53;;;1.65;;
29330;SDS011;16331;52.528;13.342;2022-11-02T04:58:58;2.53;;;1.48;;
29330;SDS011;16331;52.528;13.342;2022-11-02T05:01:25;13.13;;;2.05;;
29330;SDS011;16331;52.528;13.342;2022-11-02T05:03:54;4.40;;;1.63;;
29330;SDS011;16331;52.528;13.342;2022-11-02T05:06:24;3.58;;;1.73;;
29330;SDS011;16331;52.528;13.342;2022-11-02T05:08:51;6.07;;;1.90;;
29330;SDS011;16331;52.528;13.342;2022-11-02T05:11:18;11.52;;;2.53;;
29330;SDS011;16331;52.528;13.342;2022-11-02T05:13:44;2.80;;;1.15;;
29330;SDS011;16331;52.528;13.342;2022-11-02T05:16:11;6.00;;;1.77;;
29330;SDS011;16331;52.528;13.342;2022-11-02T05:18:38;10.43;;;1.88;;
29330;SDS011;16331;52.528;13.342;2022-11-02T05:21:05;12.55;;;1.67;;
29330;SDS011;16331;52.528;13.342;2022-11-02T05:23:33;5.03;;;1.77;;
29330;SDS011;16331;52.528;13.342;2022-11-02T05:26:00;5.20;;;1.75;;
29330;SDS011;16331;52.528;13.342;2022-11-02T05:28:28;10.85;;;1.95;;
29330;SDS011;16331;52.528;13.342;2022-11-02T05:30:56;7.03;;;1.92;;
29330;SDS011;16331;52.528;13.342;2022-11-02T05:33:26;4.43;;;2.00;;
29330;SDS011;16331;52.528;13.342;2022-11-02T05:35:54;3.65;;;1.55;;
29330;SDS011;16331;52.528;13.342;2022-11-02T05:38:22;14.00;;;1.80;;
29330;SDS011;16331;52.528;13.342;2022-11-02T05:40:52;4.57;;;1.60;;
29330;SDS011;16331;52.528;13.342;2022-11-02T05:43:19;9.75;;;1.83;;
29330;SDS011;16331;52.528;13.342;2022-11-02T05:45:50;7.68;;;2.47;;
29330;SDS011;16331;52.528;13.342;2022-11-02T05:48:20;6.72;;;1.70;;
29330;SDS011;16331;52.528;13.342;2022-11-02T05:50:48;13.65;;;1.70;;
29330;SDS011;16331;52.528;13.342;2022-11-02T05:53:25;6.53;;;1.83;;
29330;SDS011;16331;52.528;13.342;2022-11-02T05:55:56;12.68;;;2.20;;
29330;SDS011;16331;52.528;13.342;2022-11-02T05:58:24;9.00;;;1.77;;
29330;SDS011;16331;52.528;13.342;2022-11-02T06:00:50;3.58;;;1.15;;
29330;SDS011;16331;52.528;13.342;2022-11-02T06:03:18;3.75;;;1.42;;
29330;SDS011;16331;52.528;13.342;2022-11-02T06:05:44;5.22;;;2.45;;
29330;SDS011;16331;52.528;13.342;2022-11-02T06:08:10;8.55;;;1.75;;
29330;SDS011;16331;52.528;13.342;2022-11-02T06:10:37;5.30;;;1.48;;
29330;SDS011;16331;52.528;13.342;2022-11-02T06:13:21;11.70;;;2.22;;
29330;SDS011;16331;52.528;13.342;2022-11-02T06:15:47;3.75;;;1.60;;
29330;SDS011;16331;52.528;13.342;2022-11-02T06:18:13;13.98;;;2.40;;
29330;SDS011;16331;52.528;13.342;2022-11-02T06:20:43;6.45;;;1.75;;
29330;SDS011;16331;52.528;13.342;2022-11-02T06:23:09;5.97;;;1.50;;
29330;SDS011;16331;52.528;13.342;2022-11-02T06:25:38;4.63;;;1.55;;
29330;SDS011;16331;52.528;13.342;2022-11-02T06:28:04;8.35;;;1.55;;
29330;SDS011;16331;52.528;13.342;2022-11-02T06:30:32;7.07;;;1.33;;
29330;SDS011;16331;52.528;13.342;2022-11-02T06:32:58;4.05;;;1.30;;
29330;SDS011;16331;52.528;13.342;2022-11-02T06:35:25;6.82;;;1.75;;
29330;SDS011;16331;52.528;13.342;2022-11-02T06:37:51;4.15;;;1.73;;
29330;SDS011;16331;52.528;13.342;2022-11-02T06:40:17;3.25;;;1.33;;
29330;SDS011;16331;52.528;13.342;2022-11-02T06:42:43;3.83;;;1.20;;
29330;SDS011;16331;52.528;13.342;2022-11-02T06:45:09;7.53;;;2.08;;
29330;SDS011;16331;52.528;13.342;2022-11-02T06:47:36;3.58;;;1.70;;
29330;SDS011;16331;52.528;13.342;2022-11-02T06:50:05;7.53;;;1.85;;
29330;SDS011;16331;52.528;13.342;2022-11-02T06:52:39;11.38;;;1.88;;
29330;SDS011;16331;52.528;13.342;2022-11-02T06:55:11;6.38;;;1.25;;
29330;SDS011;16331;52.528;13.342;2022-11-02T06:57:40;6.03;;;1.75;;
29330;SDS011;16331;52.528;13.342;2022-11-02T07:00:10;11.43;;;1.50;;
29330;SDS011;16331;52.528;13.342;2022-11-02T07:02:41;2.95;;;1.33;;
29330;SDS011;16331;52.528;13.342;2022-11-02T07:05:09;3.67;;;1.65;;
29330;SDS011;16331;52.528;13.342;2022-11-02T07:07:36;5.32;;;1.75;;
29330;SDS011;16331;52.528;13.342;2022-11-02T07:10:02;3.28;;;1.23;;
29330;SDS011;16331;52.528;13.342;2022-11-02T07:12:31;6.13;;;1.52;;
29330;SDS011;16331;52.528;13.342;2022-11-02T07:14:57;6.78;;;1.67;;
29330;SDS011;16331;52.528;13.342;2022-11-02T07:17:23;5.50;;;1.80;;
29330;SDS011;16331;52.528;13.342;2022-11-02T07:19:50;8.93;;;1.75;;
29330;SDS011;16331;52.528;13.342;2022-11-02T07:22:16;9.07;;;2.15;;
29330;SDS011;16331;52.528;13.342;2022-11-02T07:24:43;4.97;;;1.48;;
29330;SDS011;16331;52.528;13.342;2022-11-02T07:27:10;2.50;;;1.35;;
29330;SDS011;16331;52.528;13.342;2022-11-02T07:29:36;3.38;;;1.27;;
29330;SDS011;16331;52.528;13.342;2022-11-02T07:32:02;4.38;;;1.35;;
29330;SDS011;16331;52.528;13.342;2022-11-02T07:34:30;4.50;;;1.80;;
29330;SDS011;16331;52.528;13.342;2022-11-02T07:36:56;4.20;;;1.83;;
29330;SDS011;16331;52.528;13.342;2022-11-02T07:39:22;14.73;;;1.48;;
29330;SDS011;16331;52.528;13.342;2022-11-02T07:41:48;5.40;;;1.38;;
29330;SDS011;16331;52.528;13.342;2022-11-02T07:44:14;8.65;;;1.27;;
29330;SDS011;16331;52.528;13.342;2022-11-02T07:46:41;7.45;;;1.42;;
29330;SDS011;16331;52.528;13.342;2022-11-02T07:49:07;13.82;;;1.42;;
29330;SDS011;16331;52.528;13.342;2022-11-02T07:51:33;4.15;;;1.10;;
29330;SDS011;16331;52.528;13.342;2022-11-02T07:53:59;9.52;;;1.58;;
29330;SDS011;16331;52.528;13.342;2022-11-02T07:56:26;4.25;;;1.60;;
29330;SDS011;16331;52.528;13.342;2022-11-02T07:58:52;6.20;;;1.52;;
29330;SDS011;16331;52.528;13.342;2022-11-02T08:01:18;4.50;;;1.30;;
29330;SDS011;16331;52.528;13.342;2022-11-02T08:03:45;8.20;;;1.73;;
29330;SDS011;16331;52.528;13.342;2022-11-02T08:06:11;7.20;;;2.30;;
29330;SDS011;16331;52.528;13.342;2022-11-02T08:08:37;8.60;;;2.40;;
29330;SDS011;16331;52.528;13.342;2022-11-02T08:11:04;5.00;;;1.67;;
29330;SDS011;16331;52.528;13.342;2022-11-02T08:13:31;9.60;;;2.85;;
29330;SDS011;16331;52.528;13.342;2022-11-02T08:15:58;5.95;;;1.08;;
29330;SDS011;16331;52.528;13.342;2022-11-02T08:18:25;6.63;;;1.35;;
29330;SDS011;16331;52.528;13.342;2022-11-02T08:20:56;4.50;;;1.02;;
29330;SDS011;16331;52.528;13.342;2022-11-02T08:23:23;13.07;;;3.08;;
29330;SDS011;16331;52.528;13.342;2022-11-02T08:25:50;10.23;;;2.30;;
29330;SDS011;16331;52.528;13.342;2022-11-02T08:28:21;11.02;;;1.70;;
29330;SDS011;16331;52.528;13.342;2022-11-02T08:33:16;10.25;;;2.67;;
29330;SDS011;16331;52.528;13.342;2022-11-02T08:35:44;21.67;;;4.50;;
29330;SDS011;16331;52.528;13.342;2022-11-02T08:38:12;8.40;;;2.38;;
29330;SDS011;16331;52.528;13.342;2022-11-02T08:40:39;4.90;;;1.70;;
29330;SDS011;16331;52.528;13.342;2022-11-02T08:43:07;8.50;;;2.47;;
29330;SDS011;16331;52.528;13.342;2022-11-02T08:45:35;5.47;;;1.95;;
29330;SDS011;16331;52.528;13.342;2022-11-02T08:48:03;7.78;;;3.28;;
29330;SDS011;16331;52.528;13.342;2022-11-02T08:50:30;10.23;;;2.95;;
29330;SDS011;16331;52.528;13.342;2022-11-02T08:52:57;9.32;;;2.65;;
29330;SDS011;16331;52.528;13.342;2022-11-02T08:55:23;6.75;;;1.30;;
29330;SDS011;16331;52.528;13.342;2022-11-02T08:57:50;6.60;;;2.13;;
29330;SDS011;16331;52.528;13.342;2022-11-02T09:00:19;16.42;;;3.88;;
29330;SDS011;16331;52.528;13.342;2022-11-02T09:05:35;10.88;;;1.70;;
29330;SDS011;16331;52.528;13.342;2022-11-02T09:08:08;4.97;;;1.63;;
29330;SDS011;16331;52.528;13.342;2022-11-02T09:10:41;5.97;;;1.50;;
29330;SDS011;16331;52.528;13.342;2022-11-02T09:13:09;10.27;;;2.00;;
29330;SDS011;16331;52.528;13.342;2022-11-02T09:15:37;3.13;;;1.70;;
29330;SDS011;16331;52.528;13.342;2022-11-02T09:18:04;12.02;;;1.75;;
29330;SDS011;16331;52.528;13.342;2022-11-02T09:20:30;8.70;;;2.38;;
29330;SDS011;16331;52.528;13.342;2022-11-02T09:22:57;12.48;;;2.05;;
29330;SDS011;16331;52.528;13.342;2022-11-02T09:25:23;9.23;;;1.95;;
29330;SDS011;16331;52.528;13.342;2022-11-02T09:27:53;6.13;;;1.63;;
29330;SDS011;16331;52.528;13.342;2022-11-02T09:30:21;7.67;;;1.73;;
29330;SDS011;16331;52.528;13.342;2022-11-02T09:32:55;9.57;;;2.17;;
29330;SDS011;16331;52.528;13.342;2022-11-02T09:35:24;8.50;;;1.75;;
29330;SDS011;16331;52.528;13.342;2022-11-02T09:37:52;5.40;;;1.15;;
29330;SDS011;16331;52.528;13.342;2022-11-02T09:40:22;4.88;;;0.90;;
29330;SDS011;16331;52.528;13.342;2022-11-02T09:45:38;7.97;;;1.92;;
29330;SDS011;16331;52.528;13.342;2022-11-02T09:48:21;4.10;;;1.25;;
29330;SDS011;16331;52.528;13.342;2022-11-02T09:51:16;13.07;;;2.10;;
29330;SDS011;16331;52.528;13.342;2022-11-02T09:53:55;8.35;;;1.13;;
29330;SDS011;16331;52.528;13.342;2022-11-02T09:56:54;10.05;;;1.50;;
29330;SDS011;16331;52.528;13.342;2022-11-02T09:59:34;8.35;;;1.42;;
29330;SDS011;16331;52.528;13.342;2022-11-02T10:08:14;11.52;;;1.75;;
29330;SDS011;16331;52.528;13.342;2022-11-02T10:10:58;7.07;;;1.40;;
29330;SDS011;16331;52.528;13.342;2022-11-02T10:14:00;7.38;;;1.38;;
29330;SDS011;16331;52.528;13.342;2022-11-02T10:16:37;3.08;;;0.80;;
29330;SDS011;16331;52.528;13.342;2022-11-02T10:19:25;2.78;;;0.85;;
29330;SDS011;16331;52.528;13.342;2022-11-02T10:21:57;7.18;;;1.15;;
29330;SDS011;16331;52.528;13.342;2022-11-02T10:24:44;3.83;;;1.30;;
29330;SDS011;16331;52.528;13.342;2022-11-02T10:27:19;6.22;;;1.25;;
29330;SDS011;16331;52.528;13.342;2022-11-02T10:30:10;6.47;;;1.17;;
29330;SDS011;16331;52.528;13.342;2022-11-02T10:32:44;2.30;;;1.00;;
29330;SDS011;16331;52.528;13.342;2022-11-02T10:43:53;6.97;;;1.42;;
29330;SDS011;16331;52.528;13.342;2022-11-02T10:46:44;7.15;;;1.00;;
29330;SDS011;16331;52.528;13.342;2022-11-02T10:52:41;5.90;;;1.30;;
29330;SDS011;16331;52.528;13.342;2022-11-02T10:55:29;6.15;;;1.30;;
29330;SDS011;16331;52.528;13.342;2022-11-02T10:58:14;6.32;;;2.17;;
29330;SDS011;16331;52.528;13.342;2022-11-02T11:01:10;7.90;;;1.25;;
29330;SDS011;16331;52.528;13.342;2022-11-02T11:03:53;4.05;;;1.50;;
29330;SDS011;16331;52.528;13.342;2022-11-02T11:06:25;4.45;;;1.17;;
29330;SDS011;16331;52.528;13.342;2022-11-02T11:09:00;6.72;;;0.90;;
29330;SDS011;16331;52.528;13.342;2022-11-02T11:11:58;4.00;;;1.25;;
29330;SDS011;16331;52.528;13.342;2022-11-02T11:17:28;4.50;;;2.35;;
29330;SDS011;16331;52.528;13.342;2022-11-02T11:20:23;6.75;;;1.70;;
29330;SDS011;16331;52.528;13.342;2022-11-02T11:26:00;16.08;;;1.45;;
29330;SDS011;16331;52.528;13.342;2022-11-02T11:31:54;3.13;;;1.10;;
29330;SDS011;16331;52.528;13.342;2022-11-02T11:34:28;7.07;;;1.00;;
29330;SDS011;16331;52.528;13.342;2022-11-02T11:37:05;4.90;;;1.33;;
29330;SDS011;16331;52.528;13.342;2022-11-02T11:39:34;11.40;;;1.60;;
29330;SDS011;16331;52.528;13.342;2022-11-02T11:42:01;9.32;;;1.10;;
29330;SDS011;16331;52.528;13.342;2022-11-02T11:44:31;7.85;;;1.10;;
29330;SDS011;16331;52.528;13.342;2022-11-02T11:46:59;5.03;;;0.95;;
29330;SDS011;16331;52.528;13.342;2022-11-02T11:49:28;6.30;;;1.48;;
29330;SDS011;16331;52.528;13.342;2022-11-02T11:51:57;6.25;;;1.23;;
29330;SDS011;16331;52.528;13.342;2022-11-02T11:54:27;6.47;;;1.33;;
29330;SDS011;16331;52.528;13.342;2022-11-02T11:59:51;2.70;;;0.80;;
29330;SDS011;16331;52.528;13.342;2022-11-02T12:05:00;4.57;;;0.90;;
29330;SDS011;16331;52.528;13.342;2022-11-02T12:08:27;7.70;;;1.25;;
29330;SDS011;16331;52.528;13.342;2022-11-02T12:19:01;4.63;;;1.88;;
29330;SDS011;16331;52.528;13.342;2022-11-02T12:22:12;4.05;;;1.20;;
29330;SDS011;16331;52.528;13.342;2022-11-02T12:28:17;10.77;;;1.67;;
29330;SDS011;16331;52.528;13.342;2022-11-02T12:33:31;9.45;;;1.33;;
29330;SDS011;16331;52.528;13.342;2022-11-02T12:50:26;1.92;;;0.80;;
29330;SDS011;16331;52.528;13.342;2022-11-02T12:53:22;1.60;;;0.93;;
29330;SDS011;16331;52.528;13.342;2022-11-02T12:56:05;0.98;;;0.70;;
29330;SDS011;16331;52.528;13.342;2022-11-02T12:58:51;3.78;;;1.00;;
29330;SDS011;16331;52.528;13.342;2022-11-02T13:01:21;8.10;;;1.02;;
29330;SDS011;16331;52.528;13.342;2022-11-02T13:04:18;2.70;;;1.25;;
29330;SDS011;16331;52.528;13.342;2022-11-02T13:06:56;4.65;;;0.75;;
29330;SDS011;16331;52.528;13.342;2022-11-02T13:09:41;3.00;;;0.68;;
29330;SDS011;16331;52.528;13.342;2022-11-02T13:12:17;3.47;;;0.77;;
29330;SDS011;16331;52.528;13.342;2022-11-02T13:14:51;3.20;;;0.70;;
29330;SDS011;16331;52.528;13.342;2022-11-02T13:17:27;1.75;;;0.73;;
29330;SDS011;16331;52.528;13.342;2022-11-02T13:20:18;3.83;;;0.75;;
29330;SDS011;16331;52.528;13.342;2022-11-02T13:22:55;4.00;;;1.05;;
29330;SDS011;16331;52.528;13.342;2022-11-02T13:25:38;3.85;;;0.93;;
29330;SDS011;16331;52.528;13.342;2022-11-02T13:28:23;6.78;;;1.10;;
29330;SDS011;16331;52.528;13.342;2022-11-02T13:31:16;5.03;;;1.35;;
29330;SDS011;16331;52.528;13.342;2022-11-02T13:34:13;2.90;;;1.00;;
29330;SDS011;16331;52.528;13.342;2022-11-02T13:36:43;2.38;;;1.08;;
29330;SDS011;16331;52.528;13.342;2022-11-02T13:39:22;2.63;;;0.60;;
29330;SDS011;16331;52.528;13.342;2022-11-02T13:52:43;4.18;;;1.17;;
29330;SDS011;16331;52.528;13.342;2022-11-02T13:55:18;5.63;;;0.93;;
29330;SDS011;16331;52.528;13.342;2022-11-02T13:58:12;4.88;;;0.68;;
29330;SDS011;16331;52.528;13.342;2022-11-02T14:00:46;2.00;;;0.60;;
29330;SDS011;16331;52.528;13.342;2022-11-02T14:03:26;3.30;;;0.88;;
29330;SDS011;16331;52.528;13.342;2022-11-02T14:06:19;1.85;;;0.60;;
29330;SDS011;16331;52.528;13.342;2022-11-02T14:09:02;1.65;;;0.70;;
29330;SDS011;16331;52.528;13.342;2022-11-02T14:11:35;6.97;;;0.90;;
29330;SDS011;16331;52.528;13.342;2022-11-02T14:14:15;8.20;;;1.08;;
29330;SDS011;16331;52.528;13.342;2022-11-02T14:22:12;2.13;;;1.10;;
29330;SDS011;16331;52.528;13.342;2022-11-02T14:29:50;9.07;;;1.75;;
29330;SDS011;16331;52.528;13.342;2022-11-02T14:34:51;4.50;;;1.02;;
29330;SDS011;16331;52.528;13.342;2022-11-02T14:40:59;6.57;;;1.13;;
29330;SDS011;16331;52.528;13.342;2022-11-02T14:49:51;2.17;;;0.82;;
29330;SDS011;16331;52.528;13.342;2022-11-02T14:52:33;3.58;;;1.10;;
29330;SDS011;16331;52.528;13.342;2022-11-02T14:55:02;6.38;;;1.27;;
29330;SDS011;16331;52.528;13.342;2022-11-02T14:57:55;6.85;;;1.00;;
29330;SDS011;16331;52.528;13.342;2022-11-02T15:00:38;3.88;;;1.00;;
29330;SDS011;16331;52.528;13.342;2022-11-02T15:03:28;4.60;;;1.63;;
29330;SDS011;16331;52.528;13.342;2022-11-02T15:06:13;4.28;;;1.00;;
29330;SDS011;16331;52.528;13.342;2022-11-02T15:09:02;2.35;;;1.02;;
29330;SDS011;16331;52.528;13.342;2022-11-02T15:27:33;4.93;;;1.30;;
29330;SDS011;16331;52.528;13.342;2022-11-02T15:30:04;5.47;;;1.63;;
29330;SDS011;16331;52.528;13.342;2022-11-02T15:32:36;3.88;;;1.00;;
29330;SDS011;16331;52.528;13.342;2022-11-02T15:35:12;5.05;;;1.42;;
29330;SDS011;16331;52.528;13.342;2022-11-02T15:37:59;6.03;;;1.55;;
29330;SDS011;16331;52.528;13.342;2022-11-02T15:40:28;4.22;;;1.10;;
29330;SDS011;16331;52.528;13.342;2022-11-02T15:46:12;2.50;;;1.40;;
29330;SDS011;16331;52.528;13.342;2022-11-02T15:52:04;6.05;;;2.42;;
29330;SDS011;16331;52.528;13.342;2022-11-02T15:57:56;7.65;;;2.00;;
29330;SDS011;16331;52.528;13.342;2022-11-02T16:00:37;3.65;;;1.00;;
29330;SDS011;16331;52.528;13.342;2022-11-02T16:03:04;5.18;;;1.27;;
29330;SDS011;16331;52.528;13.342;2022-11-02T16:08:20;19.15;;;6.07;;
29330;SDS011;16331;52.528;13.342;2022-11-02T16:11:02;20.77;;;5.80;;
29330;SDS011;16331;52.528;13.342;2022-11-02T16:13:34;7.60;;;2.30;;
29330;SDS011;16331;52.528;13.342;2022-11-02T16:16:03;10.68;;;3.03;;
29330;SDS011;16331;52.528;13.342;2022-11-02T16:18:34;6.25;;;1.90;;
29330;SDS011;16331;52.528;13.342;2022-11-02T16:21:02;9.50;;;2.63;;
29330;SDS011;16331;52.528;13.342;2022-11-02T16:23:36;21.02;;;7.22;;
29330;SDS011;16331;52.528;13.342;2022-11-02T16:26:11;7.53;;;3.15;;
29330;SDS011;16331;52.528;13.342;2022-11-02T16:28:46;14.02;;;2.83;;
29330;SDS011;16331;52.528;13.342;2022-11-02T16:31:18;7.45;;;2.42;;
29330;SDS011;16331;52.528;13.342;2022-11-02T16:33:58;9.05;;;2.97;;
29330;SDS011;16331;52.528;13.342;2022-11-02T16:36:34;8.20;;;2.40;;
29330;SDS011;16331;52.528;13.342;2022-11-02T16:41:36;3.75;;;1.35;;
29330;SDS011;16331;52.528;13.342;2022-11-02T16:44:08;5.25;;;2.05;;
29330;SDS011;16331;52.528;13.342;2022-11-02T16:49:16;5.47;;;2.40;;
29330;SDS011;16331;52.528;13.342;2022-11-02T16:51:48;4.93;;;1.88;;
29330;SDS011;16331;52.528;13.342;2022-11-02T16:56:59;32.45;;;11.10;;
29330;SDS011;16331;52.528;13.342;2022-11-02T17:02:14;15.20;;;4.38;;
29330;SDS011;16331;52.528;13.342;2022-11-02T17:04:41;5.68;;;2.75;;
29330;SDS011;16331;52.528;13.342;2022-11-02T17:07:37;2.03;;;1.60;;
29330;SDS011;16331;52.528;13.342;2022-11-02T17:10:06;11.13;;;2.28;;
29330;SDS011;16331;52.528;13.342;2022-11-02T17:12:43;6.35;;;1.83;;
29330;SDS011;16331;52.528;13.342;2022-11-02T17:15:18;3.80;;;1.35;;
29330;SDS011;16331;52.528;13.342;2022-11-02T17:20:37;5.07;;;1.48;;
29330;SDS011;16331;52.528;13.342;2022-11-02T17:23:07;8.48;;;2.20;;
29330;SDS011;16331;52.528;13.342;2022-11-02T17:25:35;9.55;;;1.98;;
29330;SDS011;16331;52.528;13.342;2022-11-02T17:30:58;4.60;;;2.05;;
29330;SDS011;16331;52.528;13.342;2022-11-02T17:33:30;8.73;;;3.10;;
29330;SDS011;16331;52.528;13.342;2022-11-02T17:36:04;6.95;;;2.28;;
29330;SDS011;16331;52.528;13.342;2022-11-02T17:38:31;5.68;;;2.13;;
29330;SDS011;16331;52.528;13.342;2022-11-02T17:40:58;5.00;;;1.45;;
29330;SDS011;16331;52.528;13.342;2022-11-02T17:43:26;5.60;;;1.52;;
29330;SDS011;16331;52.528;13.342;2022-11-02T17:45:56;4.93;;;2.50;;
29330;SDS011;16331;52.528;13.342;2022-11-02T17:48:26;11.63;;;2.40;;
29330;SDS011;16331;52.528;13.342;2022-11-02T17:51:01;13.30;;;2.00;;
29330;SDS011;16331;52.528;13.342;2022-11-02T17:53:31;6.15;;;1.63;;
29330;SDS011;16331;52.528;13.342;2022-11-02T17:56:01;5.80;;;1.67;;
29330;SDS011;16331;52.528;13.342;2022-11-02T17:58:29;4.47;;;1.48;;
29330;SDS011;16331;52.528;13.342;2022-11-02T18:00:55;5.15;;;1.75;;